Terminal Aerodrome Forecast
Issued by NWS Mt. Holly, NJ

Home | Current Version | Previous Version | Text Only | Print | Product List | Glossary On
Versions: 1 2 3 4 5 6 7 8 9 10 11 12 13 14 15 16 17 18 19 20 21 22
000
FTUS41 KPHI 252047 AAB
TAFPHL
TAF AMD
KPHL 252047Z 2521/2624 20011KT P6SM -SHRA BKN035 OVC050
     FM252105 22009KT P6SM FEW035 BKN060
     FM260000 19006KT P6SM BKN150
     FM261700 30008KT P6SM FEW030=

USA.gov is the U.S. government's official web portal to all federal, state and local government web resources and services.